sensor_id;sensor_type;location;lat;lon;timestamp;P1;durP1;ratioP1;P2;durP2;ratioP2
21941;SDS011;11135;54.192;15.670;2023-10-13T00:00:03;9.57;;;2.55;;
21941;SDS011;11135;54.192;15.670;2023-10-13T00:04:08;5.95;;;1.88;;
21941;SDS011;11135;54.192;15.670;2023-10-13T00:07:34;9.55;;;2.17;;
21941;SDS011;11135;54.192;15.670;2023-10-13T00:11:00;8.63;;;2.13;;
21941;SDS011;11135;54.192;15.670;2023-10-13T00:14:30;9.02;;;2.15;;
21941;SDS011;11135;54.192;15.670;2023-10-13T00:17:57;10.70;;;2.45;;
21941;SDS011;11135;54.192;15.670;2023-10-13T00:21:23;12.00;;;2.58;;
21941;SDS011;11135;54.192;15.670;2023-10-13T00:24:58;10.93;;;2.65;;
21941;SDS011;11135;54.192;15.670;2023-10-13T00:28:26;8.90;;;1.95;;
21941;SDS011;11135;54.192;15.670;2023-10-13T00:32:01;9.33;;;2.37;;
21941;SDS011;11135;54.192;15.670;2023-10-13T00:35:27;7.18;;;1.98;;
21941;SDS011;11135;54.192;15.670;2023-10-13T00:38:58;7.15;;;2.00;;
21941;SDS011;11135;54.192;15.670;2023-10-13T00:42:24;9.00;;;2.80;;
21941;SDS011;11135;54.192;15.670;2023-10-13T00:46:09;11.90;;;2.50;;
21941;SDS011;11135;54.192;15.670;2023-10-13T00:49:39;7.93;;;2.33;;
21941;SDS011;11135;54.192;15.670;2023-10-13T00:53:09;8.88;;;2.08;;
21941;SDS011;11135;54.192;15.670;2023-10-13T00:56:35;12.15;;;3.55;;
21941;SDS011;11135;54.192;15.670;2023-10-13T01:00:06;4.60;;;1.52;;
21941;SDS011;11135;54.192;15.670;2023-10-13T01:03:41;6.72;;;1.98;;
21941;SDS011;11135;54.192;15.670;2023-10-13T01:10:33;9.85;;;1.92;;
21941;SDS011;11135;54.192;15.670;2023-10-13T01:13:59;8.32;;;2.03;;
21941;SDS011;11135;54.192;15.670;2023-10-13T01:17:26;8.15;;;2.20;;
21941;SDS011;11135;54.192;15.670;2023-10-13T01:20:54;8.70;;;2.97;;
21941;SDS011;11135;54.192;15.670;2023-10-13T01:24:24;10.35;;;1.90;;
21941;SDS011;11135;54.192;15.670;2023-10-13T01:27:53;9.90;;;2.03;;
21941;SDS011;11135;54.192;15.670;2023-10-13T01:31:20;9.93;;;2.15;;
21941;SDS011;11135;54.192;15.670;2023-10-13T01:34:53;7.90;;;1.73;;
21941;SDS011;11135;54.192;15.670;2023-10-13T01:38:27;7.63;;;2.22;;
21941;SDS011;11135;54.192;15.670;2023-10-13T01:41:58;8.50;;;2.65;;
21941;SDS011;11135;54.192;15.670;2023-10-13T01:45:24;7.32;;;2.08;;
21941;SDS011;11135;54.192;15.670;2023-10-13T01:48:51;7.78;;;2.72;;
21941;SDS011;11135;54.192;15.670;2023-10-13T01:52:19;8.95;;;2.70;;
21941;SDS011;11135;54.192;15.670;2023-10-13T01:55:50;4.63;;;2.00;;
21941;SDS011;11135;54.192;15.670;2023-10-13T01:59:22;9.07;;;2.28;;
21941;SDS011;11135;54.192;15.670;2023-10-13T02:02:49;7.53;;;2.38;;
21941;SDS011;11135;54.192;15.670;2023-10-13T02:06:13;10.50;;;2.47;;
21941;SDS011;11135;54.192;15.670;2023-10-13T02:09:46;7.18;;;2.38;;
21941;SDS011;11135;54.192;15.670;2023-10-13T02:13:13;7.70;;;2.17;;
21941;SDS011;11135;54.192;15.670;2023-10-13T02:16:40;8.88;;;3.50;;
21941;SDS011;11135;54.192;15.670;2023-10-13T02:20:10;10.00;;;2.73;;
21941;SDS011;11135;54.192;15.670;2023-10-13T02:23:37;8.85;;;2.15;;
21941;SDS011;11135;54.192;15.670;2023-10-13T02:27:06;6.78;;;2.20;;
21941;SDS011;11135;54.192;15.670;2023-10-13T02:30:39;6.90;;;2.13;;
21941;SDS011;11135;54.192;15.670;2023-10-13T02:34:10;6.68;;;2.35;;
21941;SDS011;11135;54.192;15.670;2023-10-13T02:37:36;7.88;;;2.58;;
21941;SDS011;11135;54.192;15.670;2023-10-13T02:41:09;9.32;;;3.03;;
21941;SDS011;11135;54.192;15.670;2023-10-13T02:44:41;8.57;;;2.42;;
21941;SDS011;11135;54.192;15.670;2023-10-13T02:48:09;8.90;;;2.55;;
21941;SDS011;11135;54.192;15.670;2023-10-13T02:51:42;8.82;;;2.88;;
21941;SDS011;11135;54.192;15.670;2023-10-13T02:55:08;9.77;;;2.53;;
21941;SDS011;11135;54.192;15.670;2023-10-13T02:58:37;9.80;;;3.05;;
21941;SDS011;11135;54.192;15.670;2023-10-13T03:02:06;8.27;;;3.10;;
21941;SDS011;11135;54.192;15.670;2023-10-13T03:05:40;10.77;;;2.80;;
21941;SDS011;11135;54.192;15.670;2023-10-13T03:09:08;6.68;;;2.78;;
21941;SDS011;11135;54.192;15.670;2023-10-13T03:12:41;8.98;;;2.97;;
21941;SDS011;11135;54.192;15.670;2023-10-13T03:16:12;9.93;;;2.88;;
21941;SDS011;11135;54.192;15.670;2023-10-13T03:19:38;10.43;;;2.97;;
21941;SDS011;11135;54.192;15.670;2023-10-13T03:23:13;15.00;;;3.60;;
21941;SDS011;11135;54.192;15.670;2023-10-13T03:26:41;11.55;;;3.85;;
21941;SDS011;11135;54.192;15.670;2023-10-13T03:30:15;6.45;;;3.30;;
21941;SDS011;11135;54.192;15.670;2023-10-13T03:33:42;8.75;;;2.95;;
21941;SDS011;11135;54.192;15.670;2023-10-13T03:37:09;8.23;;;2.80;;
21941;SDS011;11135;54.192;15.670;2023-10-13T03:40:40;9.60;;;2.97;;
21941;SDS011;11135;54.192;15.670;2023-10-13T03:44:13;8.63;;;2.35;;
21941;SDS011;11135;54.192;15.670;2023-10-13T03:47:43;11.35;;;3.55;;
21941;SDS011;11135;54.192;15.670;2023-10-13T03:51:09;11.57;;;3.03;;
21941;SDS011;11135;54.192;15.670;2023-10-13T03:54:37;8.05;;;2.85;;
21941;SDS011;11135;54.192;15.670;2023-10-13T03:58:03;9.02;;;3.50;;
21941;SDS011;11135;54.192;15.670;2023-10-13T04:01:35;8.00;;;3.35;;
21941;SDS011;11135;54.192;15.670;2023-10-13T04:05:10;8.20;;;3.25;;
21941;SDS011;11135;54.192;15.670;2023-10-13T04:08:55;13.05;;;3.97;;
21941;SDS011;11135;54.192;15.670;2023-10-13T04:12:33;10.07;;;4.07;;
21941;SDS011;11135;54.192;15.670;2023-10-13T04:16:11;13.57;;;3.10;;
21941;SDS011;11135;54.192;15.670;2023-10-13T04:20:00;7.05;;;2.90;;
21941;SDS011;11135;54.192;15.670;2023-10-13T04:23:48;9.90;;;2.83;;
21941;SDS011;11135;54.192;15.670;2023-10-13T04:27:27;9.05;;;2.80;;
21941;SDS011;11135;54.192;15.670;2023-10-13T04:31:16;9.65;;;2.85;;
21941;SDS011;11135;54.192;15.670;2023-10-13T04:34:47;10.18;;;2.70;;
21941;SDS011;11135;54.192;15.670;2023-10-13T04:38:16;7.13;;;2.72;;
21941;SDS011;11135;54.192;15.670;2023-10-13T04:41:55;7.50;;;2.80;;
21941;SDS011;11135;54.192;15.670;2023-10-13T04:45:35;15.00;;;2.97;;
21941;SDS011;11135;54.192;15.670;2023-10-13T04:49:01;8.50;;;2.60;;
21941;SDS011;11135;54.192;15.670;2023-10-13T04:52:32;6.30;;;2.60;;
21941;SDS011;11135;54.192;15.670;2023-10-13T04:56:26;9.15;;;3.42;;
21941;SDS011;11135;54.192;15.670;2023-10-13T05:00:08;6.85;;;2.17;;
21941;SDS011;11135;54.192;15.670;2023-10-13T05:03:49;6.10;;;2.60;;
21941;SDS011;11135;54.192;15.670;2023-10-13T05:07:31;10.30;;;3.03;;
21941;SDS011;11135;54.192;15.670;2023-10-13T05:15:04;14.02;;;3.03;;
21941;SDS011;11135;54.192;15.670;2023-10-13T05:18:42;5.05;;;2.30;;
21941;SDS011;11135;54.192;15.670;2023-10-13T05:22:20;7.20;;;2.10;;
21941;SDS011;11135;54.192;15.670;2023-10-13T05:26:01;7.18;;;2.05;;
21941;SDS011;11135;54.192;15.670;2023-10-13T05:29:38;8.13;;;2.17;;
21941;SDS011;11135;54.192;15.670;2023-10-13T05:33:22;4.90;;;2.20;;
21941;SDS011;11135;54.192;15.670;2023-10-13T05:36:59;6.68;;;1.88;;
21941;SDS011;11135;54.192;15.670;2023-10-13T05:40:38;4.28;;;1.77;;
21941;SDS011;11135;54.192;15.670;2023-10-13T05:44:15;6.55;;;2.22;;
21941;SDS011;11135;54.192;15.670;2023-10-13T05:47:54;5.50;;;2.42;;
21941;SDS011;11135;54.192;15.670;2023-10-13T05:51:36;7.28;;;2.20;;
21941;SDS011;11135;54.192;15.670;2023-10-13T05:55:22;9.27;;;3.42;;
21941;SDS011;11135;54.192;15.670;2023-10-13T05:59:00;6.05;;;2.22;;
21941;SDS011;11135;54.192;15.670;2023-10-13T06:02:38;7.18;;;2.35;;
21941;SDS011;11135;54.192;15.670;2023-10-13T06:06:16;7.75;;;2.30;;
21941;SDS011;11135;54.192;15.670;2023-10-13T06:09:57;6.28;;;2.00;;
21941;SDS011;11135;54.192;15.670;2023-10-13T06:13:35;9.35;;;2.17;;
21941;SDS011;11135;54.192;15.670;2023-10-13T06:17:13;6.18;;;1.45;;
21941;SDS011;11135;54.192;15.670;2023-10-13T06:20:51;7.28;;;2.20;;
21941;SDS011;11135;54.192;15.670;2023-10-13T06:24:31;5.63;;;2.13;;
21941;SDS011;11135;54.192;15.670;2023-10-13T06:28:12;8.80;;;2.30;;
21941;SDS011;11135;54.192;15.670;2023-10-13T06:31:50;7.40;;;1.92;;
21941;SDS011;11135;54.192;15.670;2023-10-13T06:35:19;6.03;;;2.22;;
21941;SDS011;11135;54.192;15.670;2023-10-13T06:38:47;5.68;;;1.52;;
21941;SDS011;11135;54.192;15.670;2023-10-13T06:42:18;8.38;;;1.90;;
21941;SDS011;11135;54.192;15.670;2023-10-13T06:45:47;8.80;;;2.30;;
21941;SDS011;11135;54.192;15.670;2023-10-13T06:49:19;3.15;;;1.40;;
21941;SDS011;11135;54.192;15.670;2023-10-13T06:52:46;8.13;;;2.08;;
21941;SDS011;11135;54.192;15.670;2023-10-13T06:56:12;5.78;;;2.03;;
21941;SDS011;11135;54.192;15.670;2023-10-13T06:59:41;5.88;;;1.70;;
21941;SDS011;11135;54.192;15.670;2023-10-13T07:03:11;7.72;;;2.00;;
21941;SDS011;11135;54.192;15.670;2023-10-13T07:06:41;6.10;;;1.52;;
21941;SDS011;11135;54.192;15.670;2023-10-13T07:10:10;5.70;;;1.50;;
21941;SDS011;11135;54.192;15.670;2023-10-13T07:13:37;7.68;;;2.38;;
21941;SDS011;11135;54.192;15.670;2023-10-13T07:17:09;8.38;;;2.50;;
21941;SDS011;11135;54.192;15.670;2023-10-13T07:20:42;7.43;;;1.70;;
21941;SDS011;11135;54.192;15.670;2023-10-13T07:24:09;4.88;;;1.60;;
21941;SDS011;11135;54.192;15.670;2023-10-13T07:27:35;8.35;;;2.67;;
21941;SDS011;11135;54.192;15.670;2023-10-13T07:31:01;3.50;;;1.25;;
21941;SDS011;11135;54.192;15.670;2023-10-13T07:34:37;3.95;;;1.65;;
21941;SDS011;11135;54.192;15.670;2023-10-13T07:38:06;6.47;;;1.40;;
21941;SDS011;11135;54.192;15.670;2023-10-13T07:41:33;4.05;;;1.55;;
21941;SDS011;11135;54.192;15.670;2023-10-13T07:44:59;7.90;;;2.45;;
21941;SDS011;11135;54.192;15.670;2023-10-13T07:48:27;5.25;;;1.83;;
21941;SDS011;11135;54.192;15.670;2023-10-13T07:51:53;7.60;;;2.03;;
21941;SDS011;11135;54.192;15.670;2023-10-13T07:55:23;4.10;;;1.50;;
21941;SDS011;11135;54.192;15.670;2023-10-13T07:58:48;9.27;;;1.80;;
21941;SDS011;11135;54.192;15.670;2023-10-13T08:02:26;5.15;;;1.50;;
21941;SDS011;11135;54.192;15.670;2023-10-13T08:06:06;8.95;;;3.22;;
21941;SDS011;11135;54.192;15.670;2023-10-13T08:09:43;4.55;;;1.73;;
21941;SDS011;11135;54.192;15.670;2023-10-13T08:13:17;8.95;;;2.47;;
21941;SDS011;11135;54.192;15.670;2023-10-13T08:16:48;9.85;;;2.45;;
21941;SDS011;11135;54.192;15.670;2023-10-13T08:20:20;11.80;;;2.85;;
21941;SDS011;11135;54.192;15.670;2023-10-13T08:23:46;7.32;;;1.70;;
21941;SDS011;11135;54.192;15.670;2023-10-13T08:27:29;9.07;;;2.08;;
21941;SDS011;11135;54.192;15.670;2023-10-13T08:31:05;4.68;;;1.58;;
21941;SDS011;11135;54.192;15.670;2023-10-13T08:34:38;6.47;;;2.00;;
21941;SDS011;11135;54.192;15.670;2023-10-13T08:38:22;6.13;;;2.30;;
21941;SDS011;11135;54.192;15.670;2023-10-13T08:41:53;7.38;;;2.53;;
21941;SDS011;11135;54.192;15.670;2023-10-13T08:45:36;5.45;;;2.13;;
21941;SDS011;11135;54.192;15.670;2023-10-13T08:49:18;5.63;;;2.33;;
21941;SDS011;11135;54.192;15.670;2023-10-13T08:52:46;9.13;;;2.10;;
21941;SDS011;11135;54.192;15.670;2023-10-13T08:56:12;11.13;;;2.65;;
21941;SDS011;11135;54.192;15.670;2023-10-13T08:59:41;8.23;;;2.50;;
21941;SDS011;11135;54.192;15.670;2023-10-13T09:03:15;9.90;;;2.85;;
21941;SDS011;11135;54.192;15.670;2023-10-13T09:07:04;8.60;;;2.97;;
21941;SDS011;11135;54.192;15.670;2023-10-13T09:10:38;7.07;;;2.55;;
21941;SDS011;11135;54.192;15.670;2023-10-13T09:14:30;5.65;;;2.38;;
21941;SDS011;11135;54.192;15.670;2023-10-13T09:18:04;9.68;;;2.75;;
21941;SDS011;11135;54.192;15.670;2023-10-13T09:21:37;7.57;;;3.10;;
21941;SDS011;11135;54.192;15.670;2023-10-13T09:25:27;6.60;;;3.75;;
21941;SDS011;11135;54.192;15.670;2023-10-13T09:28:55;5.63;;;2.83;;
21941;SDS011;11135;54.192;15.670;2023-10-13T09:32:21;8.35;;;4.43;;
21941;SDS011;11135;54.192;15.670;2023-10-13T09:35:47;9.80;;;4.50;;
21941;SDS011;11135;54.192;15.670;2023-10-13T09:39:12;8.00;;;4.53;;
21941;SDS011;11135;54.192;15.670;2023-10-13T09:42:55;9.10;;;5.68;;
21941;SDS011;11135;54.192;15.670;2023-10-13T09:46:22;11.75;;;5.78;;
21941;SDS011;11135;54.192;15.670;2023-10-13T09:49:58;11.02;;;6.00;;
21941;SDS011;11135;54.192;15.670;2023-10-13T09:53:26;12.35;;;6.60;;
21941;SDS011;11135;54.192;15.670;2023-10-13T09:56:57;9.43;;;6.07;;
21941;SDS011;11135;54.192;15.670;2023-10-13T10:00:27;11.77;;;6.85;;
21941;SDS011;11135;54.192;15.670;2023-10-13T10:04:06;11.80;;;6.45;;
21941;SDS011;11135;54.192;15.670;2023-10-13T10:07:53;11.35;;;6.50;;
21941;SDS011;11135;54.192;15.670;2023-10-13T10:15:06;11.32;;;6.70;;
21941;SDS011;11135;54.192;15.670;2023-10-13T10:18:35;11.90;;;7.78;;
21941;SDS011;11135;54.192;15.670;2023-10-13T10:22:05;13.07;;;7.55;;
21941;SDS011;11135;54.192;15.670;2023-10-13T10:25:41;13.68;;;8.07;;
21941;SDS011;11135;54.192;15.670;2023-10-13T10:29:11;14.35;;;7.85;;
21941;SDS011;11135;54.192;15.670;2023-10-13T10:32:39;14.82;;;9.18;;
21941;SDS011;11135;54.192;15.670;2023-10-13T10:36:16;12.63;;;8.25;;
21941;SDS011;11135;54.192;15.670;2023-10-13T10:39:45;12.70;;;7.43;;
21941;SDS011;11135;54.192;15.670;2023-10-13T10:43:14;14.23;;;8.23;;
21941;SDS011;11135;54.192;15.670;2023-10-13T10:46:54;14.65;;;8.10;;
21941;SDS011;11135;54.192;15.670;2023-10-13T10:50:25;14.98;;;8.38;;
21941;SDS011;11135;54.192;15.670;2023-10-13T10:54:00;13.00;;;7.23;;
21941;SDS011;11135;54.192;15.670;2023-10-13T10:57:34;15.05;;;10.35;;
21941;SDS011;11135;54.192;15.670;2023-10-13T11:01:08;15.38;;;9.13;;
21941;SDS011;11135;54.192;15.670;2023-10-13T11:04:36;19.33;;;10.10;;
21941;SDS011;11135;54.192;15.670;2023-10-13T11:08:20;16.23;;;10.93;;
21941;SDS011;11135;54.192;15.670;2023-10-13T11:12:08;18.10;;;10.23;;
21941;SDS011;11135;54.192;15.670;2023-10-13T11:15:41;19.30;;;11.60;;
21941;SDS011;11135;54.192;15.670;2023-10-13T11:19:13;17.00;;;9.90;;
21941;SDS011;11135;54.192;15.670;2023-10-13T11:22:46;17.42;;;11.05;;
21941;SDS011;11135;54.192;15.670;2023-10-13T11:26:12;13.07;;;8.55;;
21941;SDS011;11135;54.192;15.670;2023-10-13T11:29:41;18.67;;;11.10;;
21941;SDS011;11135;54.192;15.670;2023-10-13T11:33:14;17.88;;;11.52;;
21941;SDS011;11135;54.192;15.670;2023-10-13T11:36:41;20.55;;;12.45;;
21941;SDS011;11135;54.192;15.670;2023-10-13T11:40:07;15.20;;;11.32;;
21941;SDS011;11135;54.192;15.670;2023-10-13T11:43:39;16.27;;;10.35;;
21941;SDS011;11135;54.192;15.670;2023-10-13T11:47:19;16.08;;;11.65;;
21941;SDS011;11135;54.192;15.670;2023-10-13T11:51:02;19.60;;;13.07;;
21941;SDS011;11135;54.192;15.670;2023-10-13T11:54:29;17.83;;;11.40;;
21941;SDS011;11135;54.192;15.670;2023-10-13T11:57:56;20.17;;;13.35;;
21941;SDS011;11135;54.192;15.670;2023-10-13T12:01:22;21.20;;;13.27;;
21941;SDS011;11135;54.192;15.670;2023-10-13T12:05:11;20.25;;;13.27;;
21941;SDS011;11135;54.192;15.670;2023-10-13T12:08:39;23.63;;;13.77;;
21941;SDS011;11135;54.192;15.670;2023-10-13T12:12:12;22.48;;;11.85;;
21941;SDS011;11135;54.192;15.670;2023-10-13T12:15:38;20.55;;;13.77;;
21941;SDS011;11135;54.192;15.670;2023-10-13T12:19:11;21.35;;;14.05;;
21941;SDS011;11135;54.192;15.670;2023-10-13T12:22:41;19.85;;;12.80;;
21941;SDS011;11135;54.192;15.670;2023-10-13T12:26:18;24.40;;;15.43;;
21941;SDS011;11135;54.192;15.670;2023-10-13T12:29:54;18.48;;;13.80;;
21941;SDS011;11135;54.192;15.670;2023-10-13T12:33:29;17.73;;;12.73;;
21941;SDS011;11135;54.192;15.670;2023-10-13T12:36:59;20.02;;;14.25;;
21941;SDS011;11135;54.192;15.670;2023-10-13T12:40:53;17.80;;;13.35;;
21941;SDS011;11135;54.192;15.670;2023-10-13T12:44:49;19.20;;;14.20;;
21941;SDS011;11135;54.192;15.670;2023-10-13T12:48:28;24.45;;;16.95;;
21941;SDS011;11135;54.192;15.670;2023-10-13T12:52:06;20.92;;;13.80;;
21941;SDS011;11135;54.192;15.670;2023-10-13T12:55:39;22.63;;;15.93;;
21941;SDS011;11135;54.192;15.670;2023-10-13T12:59:09;17.65;;;12.48;;
21941;SDS011;11135;54.192;15.670;2023-10-13T13:02:36;19.45;;;12.77;;
21941;SDS011;11135;54.192;15.670;2023-10-13T13:06:02;20.88;;;14.52;;
21941;SDS011;11135;54.192;15.670;2023-10-13T13:09:30;18.63;;;13.18;;
21941;SDS011;11135;54.192;15.670;2023-10-13T13:12:59;20.35;;;12.60;;
21941;SDS011;11135;54.192;15.670;2023-10-13T13:16:28;17.27;;;12.68;;
21941;SDS011;11135;54.192;15.670;2023-10-13T13:19:55;18.55;;;13.10;;
21941;SDS011;11135;54.192;15.670;2023-10-13T13:23:24;20.40;;;12.85;;
21941;SDS011;11135;54.192;15.670;2023-10-13T13:26:53;21.05;;;12.98;;
21941;SDS011;11135;54.192;15.670;2023-10-13T13:30:19;21.40;;;13.63;;
21941;SDS011;11135;54.192;15.670;2023-10-13T13:33:48;14.52;;;9.43;;
21941;SDS011;11135;54.192;15.670;2023-10-13T13:37:14;13.02;;;8.88;;
21941;SDS011;11135;54.192;15.670;2023-10-13T13:40:42;9.23;;;7.00;;
21941;SDS011;11135;54.192;15.670;2023-10-13T13:44:12;10.40;;;8.55;;
21941;SDS011;11135;54.192;15.670;2023-10-13T13:47:41;12.88;;;8.90;;
21941;SDS011;11135;54.192;15.670;2023-10-13T13:51:10;9.00;;;6.95;;
21941;SDS011;11135;54.192;15.670;2023-10-13T13:54:41;9.30;;;8.02;;
21941;SDS011;11135;54.192;15.670;2023-10-13T13:58:09;10.18;;;6.88;;
21941;SDS011;11135;54.192;15.670;2023-10-13T14:01:35;9.60;;;7.75;;
21941;SDS011;11135;54.192;15.670;2023-10-13T14:05:03;11.18;;;6.25;;
21941;SDS011;11135;54.192;15.670;2023-10-13T14:08:41;8.48;;;6.07;;
21941;SDS011;11135;54.192;15.670;2023-10-13T14:12:11;7.07;;;5.65;;
21941;SDS011;11135;54.192;15.670;2023-10-13T14:15:49;8.98;;;6.10;;
21941;SDS011;11135;54.192;15.670;2023-10-13T14:19:19;10.38;;;6.32;;
21941;SDS011;11135;54.192;15.670;2023-10-13T14:22:49;10.10;;;5.45;;
21941;SDS011;11135;54.192;15.670;2023-10-13T14:26:19;9.98;;;6.57;;
21941;SDS011;11135;54.192;15.670;2023-10-13T14:29:48;8.05;;;5.75;;
21941;SDS011;11135;54.192;15.670;2023-10-13T14:33:16;7.65;;;6.03;;
21941;SDS011;11135;54.192;15.670;2023-10-13T14:36:46;10.45;;;6.25;;
21941;SDS011;11135;54.192;15.670;2023-10-13T14:40:12;8.65;;;5.55;;
21941;SDS011;11135;54.192;15.670;2023-10-13T14:43:42;7.43;;;5.05;;
21941;SDS011;11135;54.192;15.670;2023-10-13T14:47:12;9.02;;;6.10;;
21941;SDS011;11135;54.192;15.670;2023-10-13T14:50:39;8.95;;;6.18;;
21941;SDS011;11135;54.192;15.670;2023-10-13T14:54:06;7.55;;;6.13;;
21941;SDS011;11135;54.192;15.670;2023-10-13T14:57:31;10.85;;;6.25;;
21941;SDS011;11135;54.192;15.670;2023-10-13T15:01:03;7.75;;;5.57;;
21941;SDS011;11135;54.192;15.670;2023-10-13T15:04:37;8.60;;;5.10;;
21941;SDS011;11135;54.192;15.670;2023-10-13T15:08:04;9.38;;;5.60;;
21941;SDS011;11135;54.192;15.670;2023-10-13T15:11:30;7.93;;;6.10;;
21941;SDS011;11135;54.192;15.670;2023-10-13T15:15:12;8.00;;;4.65;;
21941;SDS011;11135;54.192;15.670;2023-10-13T15:18:41;9.15;;;6.05;;
21941;SDS011;11135;54.192;15.670;2023-10-13T15:22:07;10.40;;;5.60;;
21941;SDS011;11135;54.192;15.670;2023-10-13T15:25:39;7.73;;;6.07;;
21941;SDS011;11135;54.192;15.670;2023-10-13T15:29:14;7.80;;;5.15;;
21941;SDS011;11135;54.192;15.670;2023-10-13T15:32:41;8.95;;;5.30;;
21941;SDS011;11135;54.192;15.670;2023-10-13T15:36:11;8.07;;;4.80;;
21941;SDS011;11135;54.192;15.670;2023-10-13T15:39:38;8.13;;;5.13;;
21941;SDS011;11135;54.192;15.670;2023-10-13T15:43:05;8.25;;;5.25;;
21941;SDS011;11135;54.192;15.670;2023-10-13T15:46:31;8.35;;;5.50;;
21941;SDS011;11135;54.192;15.670;2023-10-13T15:50:19;10.73;;;4.13;;
21941;SDS011;11135;54.192;15.670;2023-10-13T15:53:49;11.30;;;4.88;;
21941;SDS011;11135;54.192;15.670;2023-10-13T15:57:15;8.05;;;5.18;;
21941;SDS011;11135;54.192;15.670;2023-10-13T16:00:42;11.30;;;5.45;;
21941;SDS011;11135;54.192;15.670;2023-10-13T16:04:08;9.82;;;5.65;;
21941;SDS011;11135;54.192;15.670;2023-10-13T16:07:36;8.20;;;5.13;;
21941;SDS011;11135;54.192;15.670;2023-10-13T16:11:07;9.50;;;4.88;;
21941;SDS011;11135;54.192;15.670;2023-10-13T16:14:36;9.45;;;5.22;;
21941;SDS011;11135;54.192;15.670;2023-10-13T16:18:06;10.27;;;6.00;;
21941;SDS011;11135;54.192;15.670;2023-10-13T16:21:32;10.25;;;4.75;;
21941;SDS011;11135;54.192;15.670;2023-10-13T16:25:02;11.55;;;5.40;;
21941;SDS011;11135;54.192;15.670;2023-10-13T16:28:43;8.45;;;4.82;;
21941;SDS011;11135;54.192;15.670;2023-10-13T16:32:12;8.90;;;5.57;;
21941;SDS011;11135;54.192;15.670;2023-10-13T16:35:41;9.57;;;5.70;;
21941;SDS011;11135;54.192;15.670;2023-10-13T16:39:09;7.47;;;4.95;;
21941;SDS011;11135;54.192;15.670;2023-10-13T16:42:38;8.80;;;5.07;;
21941;SDS011;11135;54.192;15.670;2023-10-13T16:46:09;9.18;;;4.47;;
21941;SDS011;11135;54.192;15.670;2023-10-13T16:49:35;11.75;;;5.47;;
21941;SDS011;11135;54.192;15.670;2023-10-13T16:53:01;10.70;;;4.70;;
21941;SDS011;11135;54.192;15.670;2023-10-13T16:56:28;10.48;;;5.28;;
21941;SDS011;11135;54.192;15.670;2023-10-13T16:59:59;9.82;;;5.43;;
21941;SDS011;11135;54.192;15.670;2023-10-13T17:03:32;9.73;;;5.05;;
21941;SDS011;11135;54.192;15.670;2023-10-13T17:06:58;9.30;;;4.85;;
21941;SDS011;11135;54.192;15.670;2023-10-13T17:10:24;8.70;;;5.10;;
21941;SDS011;11135;54.192;15.670;2023-10-13T17:13:52;10.25;;;4.85;;
21941;SDS011;11135;54.192;15.670;2023-10-13T17:17:21;9.82;;;5.15;;
21941;SDS011;11135;54.192;15.670;2023-10-13T17:20:50;10.50;;;4.93;;
21941;SDS011;11135;54.192;15.670;2023-10-13T17:24:16;9.27;;;4.93;;
21941;SDS011;11135;54.192;15.670;2023-10-13T17:27:43;9.75;;;5.07;;
21941;SDS011;11135;54.192;15.670;2023-10-13T17:31:09;11.95;;;4.80;;
21941;SDS011;11135;54.192;15.670;2023-10-13T17:34:36;11.15;;;4.97;;
21941;SDS011;11135;54.192;15.670;2023-10-13T17:38:05;8.80;;;5.50;;
21941;SDS011;11135;54.192;15.670;2023-10-13T17:41:33;12.82;;;4.85;;
21941;SDS011;11135;54.192;15.670;2023-10-13T17:44:59;8.63;;;4.93;;
21941;SDS011;11135;54.192;15.670;2023-10-13T17:48:25;9.45;;;5.07;;
21941;SDS011;11135;54.192;15.670;2023-10-13T17:51:51;13.55;;;5.00;;
21941;SDS011;11135;54.192;15.670;2023-10-13T17:55:20;7.25;;;3.70;;
21941;SDS011;11135;54.192;15.670;2023-10-13T17:58:46;13.18;;;5.13;;
21941;SDS011;11135;54.192;15.670;2023-10-13T18:02:14;8.57;;;4.82;;
21941;SDS011;11135;54.192;15.670;2023-10-13T18:05:40;8.35;;;4.85;;
21941;SDS011;11135;54.192;15.670;2023-10-13T18:09:06;9.77;;;4.80;;
21941;SDS011;11135;54.192;15.670;2023-10-13T18:12:36;9.55;;;4.95;;
21941;SDS011;11135;54.192;15.670;2023-10-13T18:16:10;12.68;;;5.35;;
21941;SDS011;11135;54.192;15.670;2023-10-13T18:19:36;10.45;;;4.90;;
21941;SDS011;11135;54.192;15.670;2023-10-13T18:23:03;13.50;;;5.40;;
21941;SDS011;11135;54.192;15.670;2023-10-13T18:26:32;11.77;;;4.95;;
21941;SDS011;11135;54.192;15.670;2023-10-13T18:30:01;10.70;;;4.90;;
21941;SDS011;11135;54.192;15.670;2023-10-13T18:33:26;9.65;;;4.80;;
21941;SDS011;11135;54.192;15.670;2023-10-13T18:36:55;8.90;;;4.43;;
21941;SDS011;11135;54.192;15.670;2023-10-13T18:40:22;10.18;;;4.85;;
21941;SDS011;11135;54.192;15.670;2023-10-13T18:43:51;13.68;;;5.45;;
21941;SDS011;11135;54.192;15.670;2023-10-13T18:47:22;12.32;;;5.28;;
21941;SDS011;11135;54.192;15.670;2023-10-13T18:50:48;9.27;;;4.53;;
21941;SDS011;11135;54.192;15.670;2023-10-13T18:54:16;10.25;;;5.18;;
21941;SDS011;11135;54.192;15.670;2023-10-13T18:57:43;12.45;;;5.35;;
21941;SDS011;11135;54.192;15.670;2023-10-13T19:01:09;10.25;;;4.65;;
21941;SDS011;11135;54.192;15.670;2023-10-13T19:04:41;10.60;;;5.32;;
21941;SDS011;11135;54.192;15.670;2023-10-13T19:08:07;13.02;;;4.95;;
21941;SDS011;11135;54.192;15.670;2023-10-13T19:11:33;13.43;;;5.22;;
21941;SDS011;11135;54.192;15.670;2023-10-13T19:15:00;11.80;;;5.07;;
21941;SDS011;11135;54.192;15.670;2023-10-13T19:18:29;8.88;;;5.00;;
21941;SDS011;11135;54.192;15.670;2023-10-13T19:21:58;11.20;;;5.07;;
21941;SDS011;11135;54.192;15.670;2023-10-13T19:25:35;10.55;;;4.38;;
21941;SDS011;11135;54.192;15.670;2023-10-13T19:29:01;10.05;;;6.20;;
21941;SDS011;11135;54.192;15.670;2023-10-13T19:32:28;9.65;;;4.80;;
21941;SDS011;11135;54.192;15.670;2023-10-13T19:35:54;7.47;;;4.50;;
21941;SDS011;11135;54.192;15.670;2023-10-13T19:39:23;9.45;;;5.18;;
21941;SDS011;11135;54.192;15.670;2023-10-13T19:42:48;9.65;;;5.07;;
21941;SDS011;11135;54.192;15.670;2023-10-13T19:46:16;7.60;;;3.97;;
21941;SDS011;11135;54.192;15.670;2023-10-13T19:49:43;9.45;;;4.78;;
21941;SDS011;11135;54.192;15.670;2023-10-13T19:53:09;8.90;;;4.90;;
21941;SDS011;11135;54.192;15.670;2023-10-13T19:56:39;9.48;;;5.32;;
21941;SDS011;11135;54.192;15.670;2023-10-13T20:00:06;11.35;;;6.60;;
21941;SDS011;11135;54.192;15.670;2023-10-13T20:03:35;9.50;;;4.80;;
21941;SDS011;11135;54.192;15.670;2023-10-13T20:07:05;9.77;;;5.38;;
21941;SDS011;11135;54.192;15.670;2023-10-13T20:10:31;10.60;;;4.95;;
21941;SDS011;11135;54.192;15.670;2023-10-13T20:14:01;11.05;;;4.75;;
21941;SDS011;11135;54.192;15.670;2023-10-13T20:17:27;10.95;;;4.97;;
21941;SDS011;11135;54.192;15.670;2023-10-13T20:20:54;8.93;;;4.45;;
21941;SDS011;11135;54.192;15.670;2023-10-13T20:24:19;9.32;;;5.72;;
21941;SDS011;11135;54.192;15.670;2023-10-13T20:27:46;6.95;;;3.95;;
21941;SDS011;11135;54.192;15.670;2023-10-13T20:31:16;10.70;;;4.30;;
21941;SDS011;11135;54.192;15.670;2023-10-13T20:34:43;11.95;;;4.70;;
21941;SDS011;11135;54.192;15.670;2023-10-13T20:38:09;10.73;;;5.25;;
21941;SDS011;11135;54.192;15.670;2023-10-13T20:41:35;9.48;;;4.00;;
21941;SDS011;11135;54.192;15.670;2023-10-13T20:45:01;8.32;;;5.18;;
21941;SDS011;11135;54.192;15.670;2023-10-13T20:48:31;14.35;;;5.00;;
21941;SDS011;11135;54.192;15.670;2023-10-13T20:51:56;7.68;;;3.70;;
21941;SDS011;11135;54.192;15.670;2023-10-13T20:55:27;9.48;;;4.63;;